sensor_id;sensor_type;location;lat;lon;timestamp;P1;durP1;ratioP1;P2;durP2;ratioP2
3341;SDS011;1684;50.748;6.154;2022-12-16T00:02:10;11.73;;;7.00;;
3341;SDS011;1684;50.748;6.154;2022-12-16T00:04:39;15.90;;;6.57;;
3341;SDS011;1684;50.748;6.154;2022-12-16T00:07:07;10.48;;;5.68;;
3341;SDS011;1684;50.748;6.154;2022-12-16T00:09:37;8.75;;;6.15;;
3341;SDS011;1684;50.748;6.154;2022-12-16T00:12:05;12.40;;;5.43;;
3341;SDS011;1684;50.748;6.154;2022-12-16T00:14:34;9.70;;;5.90;;
3341;SDS011;1684;50.748;6.154;2022-12-16T00:17:02;10.23;;;5.13;;
3341;SDS011;1684;50.748;6.154;2022-12-16T00:19:32;9.55;;;4.70;;
3341;SDS011;1684;50.748;6.154;2022-12-16T00:22:00;10.50;;;5.55;;
3341;SDS011;1684;50.748;6.154;2022-12-16T00:24:28;8.30;;;5.13;;
3341;SDS011;1684;50.748;6.154;2022-12-16T00:26:58;8.48;;;4.70;;
3341;SDS011;1684;50.748;6.154;2022-12-16T00:29:26;7.60;;;4.20;;
3341;SDS011;1684;50.748;6.154;2022-12-16T00:31:55;6.28;;;4.15;;
3341;SDS011;1684;50.748;6.154;2022-12-16T00:34:23;9.13;;;4.60;;
3341;SDS011;1684;50.748;6.154;2022-12-16T00:36:51;7.83;;;4.90;;
3341;SDS011;1684;50.748;6.154;2022-12-16T00:39:20;8.93;;;5.10;;
3341;SDS011;1684;50.748;6.154;2022-12-16T00:41:48;8.07;;;4.63;;
3341;SDS011;1684;50.748;6.154;2022-12-16T00:44:18;8.97;;;4.80;;
3341;SDS011;1684;50.748;6.154;2022-12-16T00:46:46;8.20;;;3.92;;
3341;SDS011;1684;50.748;6.154;2022-12-16T00:49:16;6.82;;;3.40;;
3341;SDS011;1684;50.748;6.154;2022-12-16T00:51:44;6.72;;;3.65;;
3341;SDS011;1684;50.748;6.154;2022-12-16T00:54:12;9.27;;;4.38;;
3341;SDS011;1684;50.748;6.154;2022-12-16T00:56:40;6.20;;;3.38;;
3341;SDS011;1684;50.748;6.154;2022-12-16T00:59:10;6.03;;;4.10;;
3341;SDS011;1684;50.748;6.154;2022-12-16T01:01:42;7.60;;;4.55;;
3341;SDS011;1684;50.748;6.154;2022-12-16T01:04:11;6.18;;;3.90;;
3341;SDS011;1684;50.748;6.154;2022-12-16T01:06:39;9.27;;;4.80;;
3341;SDS011;1684;50.748;6.154;2022-12-16T01:09:08;11.70;;;5.18;;
3341;SDS011;1684;50.748;6.154;2022-12-16T01:11:36;9.43;;;4.30;;
3341;SDS011;1684;50.748;6.154;2022-12-16T01:14:04;6.22;;;3.85;;
3341;SDS011;1684;50.748;6.154;2022-12-16T01:16:32;9.35;;;3.90;;
3341;SDS011;1684;50.748;6.154;2022-12-16T01:19:02;16.17;;;4.13;;
3341;SDS011;1684;50.748;6.154;2022-12-16T01:21:30;11.02;;;4.32;;
3341;SDS011;1684;50.748;6.154;2022-12-16T01:23:59;9.77;;;3.97;;
3341;SDS011;1684;50.748;6.154;2022-12-16T01:26:27;9.85;;;4.40;;
3341;SDS011;1684;50.748;6.154;2022-12-16T01:28:55;6.32;;;3.67;;
3341;SDS011;1684;50.748;6.154;2022-12-16T01:31:23;8.32;;;4.13;;
3341;SDS011;1684;50.748;6.154;2022-12-16T01:33:52;7.70;;;4.20;;
3341;SDS011;1684;50.748;6.154;2022-12-16T01:36:22;7.88;;;3.67;;
3341;SDS011;1684;50.748;6.154;2022-12-16T01:38:51;6.50;;;2.95;;
3341;SDS011;1684;50.748;6.154;2022-12-16T01:41:20;8.55;;;3.50;;
3341;SDS011;1684;50.748;6.154;2022-12-16T01:43:48;8.25;;;3.63;;
3341;SDS011;1684;50.748;6.154;2022-12-16T01:46:18;6.68;;;3.20;;
3341;SDS011;1684;50.748;6.154;2022-12-16T01:48:49;7.80;;;3.75;;
3341;SDS011;1684;50.748;6.154;2022-12-16T01:51:20;5.90;;;3.60;;
3341;SDS011;1684;50.748;6.154;2022-12-16T01:53:52;4.93;;;3.28;;
3341;SDS011;1684;50.748;6.154;2022-12-16T01:56:38;7.40;;;3.40;;
3341;SDS011;1684;50.748;6.154;2022-12-16T01:59:09;6.68;;;2.72;;
3341;SDS011;1684;50.748;6.154;2022-12-16T02:01:38;4.50;;;2.65;;
3341;SDS011;1684;50.748;6.154;2022-12-16T02:04:06;9.02;;;3.10;;
3341;SDS011;1684;50.748;6.154;2022-12-16T02:06:35;7.28;;;3.10;;
3341;SDS011;1684;50.748;6.154;2022-12-16T02:09:05;6.82;;;2.22;;
3341;SDS011;1684;50.748;6.154;2022-12-16T02:11:46;5.90;;;2.47;;
3341;SDS011;1684;50.748;6.154;2022-12-16T02:14:38;5.82;;;2.72;;
3341;SDS011;1684;50.748;6.154;2022-12-16T02:17:11;6.57;;;3.15;;
3341;SDS011;1684;50.748;6.154;2022-12-16T02:22:31;6.03;;;2.97;;
3341;SDS011;1684;50.748;6.154;2022-12-16T02:27:58;5.13;;;2.63;;
3341;SDS011;1684;50.748;6.154;2022-12-16T02:30:52;7.82;;;3.05;;
3341;SDS011;1684;50.748;6.154;2022-12-16T02:33:36;8.65;;;2.90;;
3341;SDS011;1684;50.748;6.154;2022-12-16T02:36:16;7.63;;;3.25;;
3341;SDS011;1684;50.748;6.154;2022-12-16T02:38:57;3.72;;;2.17;;
3341;SDS011;1684;50.748;6.154;2022-12-16T02:41:29;3.20;;;2.30;;
3341;SDS011;1684;50.748;6.154;2022-12-16T02:44:00;4.10;;;2.53;;
3341;SDS011;1684;50.748;6.154;2022-12-16T02:46:53;5.53;;;2.75;;
3341;SDS011;1684;50.748;6.154;2022-12-16T02:52:08;4.65;;;2.40;;
3341;SDS011;1684;50.748;6.154;2022-12-16T02:54:37;4.05;;;1.95;;
3341;SDS011;1684;50.748;6.154;2022-12-16T02:57:06;9.35;;;2.65;;
3341;SDS011;1684;50.748;6.154;2022-12-16T02:59:39;4.68;;;2.13;;
3341;SDS011;1684;50.748;6.154;2022-12-16T03:02:14;5.97;;;2.55;;
3341;SDS011;1684;50.748;6.154;2022-12-16T03:05:01;5.00;;;2.30;;
3341;SDS011;1684;50.748;6.154;2022-12-16T03:07:31;5.15;;;2.45;;
3341;SDS011;1684;50.748;6.154;2022-12-16T03:10:01;5.32;;;2.47;;
3341;SDS011;1684;50.748;6.154;2022-12-16T03:12:30;5.97;;;2.75;;
3341;SDS011;1684;50.748;6.154;2022-12-16T03:15:00;6.85;;;2.35;;
3341;SDS011;1684;50.748;6.154;2022-12-16T03:17:31;3.53;;;1.73;;
3341;SDS011;1684;50.748;6.154;2022-12-16T03:20:17;5.30;;;2.10;;
3341;SDS011;1684;50.748;6.154;2022-12-16T03:22:47;2.95;;;1.65;;
3341;SDS011;1684;50.748;6.154;2022-12-16T03:25:17;3.90;;;1.65;;
3341;SDS011;1684;50.748;6.154;2022-12-16T03:27:49;2.97;;;1.50;;
3341;SDS011;1684;50.748;6.154;2022-12-16T03:30:22;4.95;;;2.25;;
3341;SDS011;1684;50.748;6.154;2022-12-16T03:32:54;3.72;;;2.05;;
3341;SDS011;1684;50.748;6.154;2022-12-16T03:35:26;2.78;;;2.15;;
3341;SDS011;1684;50.748;6.154;2022-12-16T03:38:13;4.32;;;1.85;;
3341;SDS011;1684;50.748;6.154;2022-12-16T03:40:42;6.95;;;1.55;;
3341;SDS011;1684;50.748;6.154;2022-12-16T03:43:11;4.20;;;1.75;;
3341;SDS011;1684;50.748;6.154;2022-12-16T03:45:40;4.28;;;1.90;;
3341;SDS011;1684;50.748;6.154;2022-12-16T03:48:12;3.67;;;1.50;;
3341;SDS011;1684;50.748;6.154;2022-12-16T03:50:42;6.03;;;1.83;;
3341;SDS011;1684;50.748;6.154;2022-12-16T03:53:28;3.58;;;1.83;;
3341;SDS011;1684;50.748;6.154;2022-12-16T03:55:57;4.18;;;1.70;;
3341;SDS011;1684;50.748;6.154;2022-12-16T03:58:26;2.75;;;1.40;;
3341;SDS011;1684;50.748;6.154;2022-12-16T04:00:54;2.58;;;1.50;;
3341;SDS011;1684;50.748;6.154;2022-12-16T04:03:23;4.55;;;1.90;;
3341;SDS011;1684;50.748;6.154;2022-12-16T04:05:52;2.20;;;1.30;;
3341;SDS011;1684;50.748;6.154;2022-12-16T04:08:20;3.58;;;2.00;;
3341;SDS011;1684;50.748;6.154;2022-12-16T04:11:07;4.50;;;1.95;;
3341;SDS011;1684;50.748;6.154;2022-12-16T04:13:53;4.82;;;1.67;;
3341;SDS011;1684;50.748;6.154;2022-12-16T04:16:39;3.25;;;1.75;;
3341;SDS011;1684;50.748;6.154;2022-12-16T04:19:27;4.35;;;1.13;;
3341;SDS011;1684;50.748;6.154;2022-12-16T04:22:17;2.22;;;1.30;;
3341;SDS011;1684;50.748;6.154;2022-12-16T04:25:05;3.17;;;1.42;;
3341;SDS011;1684;50.748;6.154;2022-12-16T04:27:52;4.15;;;1.30;;
3341;SDS011;1684;50.748;6.154;2022-12-16T04:30:20;4.10;;;1.33;;
3341;SDS011;1684;50.748;6.154;2022-12-16T04:32:49;3.03;;;1.15;;
3341;SDS011;1684;50.748;6.154;2022-12-16T04:35:38;2.30;;;1.08;;
3341;SDS011;1684;50.748;6.154;2022-12-16T04:38:24;2.65;;;1.27;;
3341;SDS011;1684;50.748;6.154;2022-12-16T04:41:10;2.00;;;1.08;;
3341;SDS011;1684;50.748;6.154;2022-12-16T04:44:15;5.60;;;1.60;;
3341;SDS011;1684;50.748;6.154;2022-12-16T04:47:01;2.70;;;1.55;;
3341;SDS011;1684;50.748;6.154;2022-12-16T04:49:46;3.08;;;1.58;;
3341;SDS011;1684;50.748;6.154;2022-12-16T04:52:33;2.55;;;1.80;;
3341;SDS011;1684;50.748;6.154;2022-12-16T04:55:19;8.52;;;2.13;;
3341;SDS011;1684;50.748;6.154;2022-12-16T04:58:05;3.40;;;1.60;;
3341;SDS011;1684;50.748;6.154;2022-12-16T05:01:09;2.17;;;1.17;;
3341;SDS011;1684;50.748;6.154;2022-12-16T05:03:55;3.20;;;1.70;;
3341;SDS011;1684;50.748;6.154;2022-12-16T05:06:41;2.30;;;1.38;;
3341;SDS011;1684;50.748;6.154;2022-12-16T05:09:28;1.75;;;0.98;;
3341;SDS011;1684;50.748;6.154;2022-12-16T05:12:14;3.47;;;1.65;;
3341;SDS011;1684;50.748;6.154;2022-12-16T05:15:00;4.80;;;2.13;;
3341;SDS011;1684;50.748;6.154;2022-12-16T05:17:46;4.13;;;1.58;;
3341;SDS011;1684;50.748;6.154;2022-12-16T05:20:32;5.15;;;1.70;;
3341;SDS011;1684;50.748;6.154;2022-12-16T05:23:17;3.63;;;1.40;;
3341;SDS011;1684;50.748;6.154;2022-12-16T05:26:05;3.50;;;1.45;;
3341;SDS011;1684;50.748;6.154;2022-12-16T05:28:53;4.25;;;1.65;;
3341;SDS011;1684;50.748;6.154;2022-12-16T05:31:38;6.13;;;2.22;;
3341;SDS011;1684;50.748;6.154;2022-12-16T05:34:42;4.18;;;1.70;;
3341;SDS011;1684;50.748;6.154;2022-12-16T05:37:28;3.13;;;1.65;;
3341;SDS011;1684;50.748;6.154;2022-12-16T05:40:14;2.67;;;1.20;;
3341;SDS011;1684;50.748;6.154;2022-12-16T05:43:01;2.10;;;1.25;;
3341;SDS011;1684;50.748;6.154;2022-12-16T05:45:47;5.97;;;2.28;;
3341;SDS011;1684;50.748;6.154;2022-12-16T05:48:33;4.07;;;1.55;;
3341;SDS011;1684;50.748;6.154;2022-12-16T05:51:20;3.15;;;1.83;;
3341;SDS011;1684;50.748;6.154;2022-12-16T05:54:06;5.30;;;2.63;;
3341;SDS011;1684;50.748;6.154;2022-12-16T05:56:51;3.30;;;1.95;;
3341;SDS011;1684;50.748;6.154;2022-12-16T05:59:39;4.82;;;1.88;;
3341;SDS011;1684;50.748;6.154;2022-12-16T06:02:25;4.40;;;2.20;;
3341;SDS011;1684;50.748;6.154;2022-12-16T06:05:11;2.25;;;1.35;;
3341;SDS011;1684;50.748;6.154;2022-12-16T06:07:57;3.72;;;1.70;;
3341;SDS011;1684;50.748;6.154;2022-12-16T06:10:45;6.50;;;2.47;;
3341;SDS011;1684;50.748;6.154;2022-12-16T06:13:30;6.80;;;2.00;;
3341;SDS011;1684;50.748;6.154;2022-12-16T06:16:29;5.15;;;2.75;;
3341;SDS011;1684;50.748;6.154;2022-12-16T06:19:15;3.25;;;1.85;;
3341;SDS011;1684;50.748;6.154;2022-12-16T06:22:03;6.03;;;2.75;;
3341;SDS011;1684;50.748;6.154;2022-12-16T06:24:49;7.38;;;2.63;;
3341;SDS011;1684;50.748;6.154;2022-12-16T06:27:35;7.18;;;2.88;;
3341;SDS011;1684;50.748;6.154;2022-12-16T06:30:21;21.88;;;2.45;;
3341;SDS011;1684;50.748;6.154;2022-12-16T06:33:09;4.65;;;1.50;;
3341;SDS011;1684;50.748;6.154;2022-12-16T06:35:55;4.90;;;2.45;;
3341;SDS011;1684;50.748;6.154;2022-12-16T06:38:41;3.08;;;1.92;;
3341;SDS011;1684;50.748;6.154;2022-12-16T06:41:27;3.03;;;2.17;;
3341;SDS011;1684;50.748;6.154;2022-12-16T06:44:13;4.90;;;2.25;;
3341;SDS011;1684;50.748;6.154;2022-12-16T06:46:59;5.45;;;1.80;;
3341;SDS011;1684;50.748;6.154;2022-12-16T06:49:46;3.97;;;2.05;;
3341;SDS011;1684;50.748;6.154;2022-12-16T06:52:32;9.75;;;2.92;;
3341;SDS011;1684;50.748;6.154;2022-12-16T06:55:26;3.03;;;2.33;;
3341;SDS011;1684;50.748;6.154;2022-12-16T06:58:13;5.43;;;3.35;;
3341;SDS011;1684;50.748;6.154;2022-12-16T07:00:59;4.40;;;2.95;;
3341;SDS011;1684;50.748;6.154;2022-12-16T07:03:45;5.88;;;3.22;;
3341;SDS011;1684;50.748;6.154;2022-12-16T07:06:45;10.93;;;4.85;;
3341;SDS011;1684;50.748;6.154;2022-12-16T07:09:31;6.80;;;4.90;;
3341;SDS011;1684;50.748;6.154;2022-12-16T07:12:17;6.70;;;3.90;;
3341;SDS011;1684;50.748;6.154;2022-12-16T07:15:03;9.05;;;3.10;;
3341;SDS011;1684;50.748;6.154;2022-12-16T07:17:51;8.70;;;3.33;;
3341;SDS011;1684;50.748;6.154;2022-12-16T07:20:38;4.35;;;2.42;;
3341;SDS011;1684;50.748;6.154;2022-12-16T07:23:26;7.40;;;3.08;;
3341;SDS011;1684;50.748;6.154;2022-12-16T07:26:12;4.05;;;2.80;;
3341;SDS011;1684;50.748;6.154;2022-12-16T07:28:58;5.60;;;2.85;;
3341;SDS011;1684;50.748;6.154;2022-12-16T07:31:44;8.65;;;2.95;;
3341;SDS011;1684;50.748;6.154;2022-12-16T07:34:30;5.20;;;2.25;;
3341;SDS011;1684;50.748;6.154;2022-12-16T07:37:24;4.68;;;2.60;;
3341;SDS011;1684;50.748;6.154;2022-12-16T07:40:11;4.97;;;2.85;;
3341;SDS011;1684;50.748;6.154;2022-12-16T07:42:57;12.93;;;2.90;;
3341;SDS011;1684;50.748;6.154;2022-12-16T07:45:43;6.40;;;3.80;;
3341;SDS011;1684;50.748;6.154;2022-12-16T07:48:29;3.53;;;2.38;;
3341;SDS011;1684;50.748;6.154;2022-12-16T07:51:16;9.95;;;2.50;;
3341;SDS011;1684;50.748;6.154;2022-12-16T07:54:02;5.07;;;2.47;;
3341;SDS011;1684;50.748;6.154;2022-12-16T07:56:49;5.72;;;2.75;;
3341;SDS011;1684;50.748;6.154;2022-12-16T07:59:35;8.50;;;2.80;;
3341;SDS011;1684;50.748;6.154;2022-12-16T08:02:21;5.30;;;2.50;;
3341;SDS011;1684;50.748;6.154;2022-12-16T08:05:08;4.65;;;2.67;;
3341;SDS011;1684;50.748;6.154;2022-12-16T08:07:54;7.43;;;4.18;;
3341;SDS011;1684;50.748;6.154;2022-12-16T08:10:40;5.03;;;1.95;;
3341;SDS011;1684;50.748;6.154;2022-12-16T08:13:28;5.18;;;2.08;;
3341;SDS011;1684;50.748;6.154;2022-12-16T08:16:17;3.97;;;1.88;;
3341;SDS011;1684;50.748;6.154;2022-12-16T08:19:03;3.88;;;1.88;;
3341;SDS011;1684;50.748;6.154;2022-12-16T08:21:57;4.03;;;1.67;;
3341;SDS011;1684;50.748;6.154;2022-12-16T08:24:43;4.55;;;2.70;;
3341;SDS011;1684;50.748;6.154;2022-12-16T08:27:29;6.40;;;3.03;;
3341;SDS011;1684;50.748;6.154;2022-12-16T08:30:17;10.70;;;4.93;;
3341;SDS011;1684;50.748;6.154;2022-12-16T08:33:11;7.75;;;3.72;;
3341;SDS011;1684;50.748;6.154;2022-12-16T08:35:58;5.53;;;2.50;;
3341;SDS011;1684;50.748;6.154;2022-12-16T08:38:44;5.68;;;2.72;;
3341;SDS011;1684;50.748;6.154;2022-12-16T08:41:30;3.72;;;2.60;;
3341;SDS011;1684;50.748;6.154;2022-12-16T08:44:17;6.78;;;2.70;;
3341;SDS011;1684;50.748;6.154;2022-12-16T08:47:04;7.57;;;2.35;;
3341;SDS011;1684;50.748;6.154;2022-12-16T08:49:50;5.53;;;2.85;;
3341;SDS011;1684;50.748;6.154;2022-12-16T08:52:36;8.65;;;3.03;;
3341;SDS011;1684;50.748;6.154;2022-12-16T08:55:22;8.40;;;4.00;;
3341;SDS011;1684;50.748;6.154;2022-12-16T08:58:06;4.53;;;2.63;;
3341;SDS011;1684;50.748;6.154;2022-12-16T09:00:52;5.22;;;3.05;;
3341;SDS011;1684;50.748;6.154;2022-12-16T09:03:40;7.57;;;3.33;;
3341;SDS011;1684;50.748;6.154;2022-12-16T09:06:27;10.52;;;3.60;;
3341;SDS011;1684;50.748;6.154;2022-12-16T09:09:13;6.03;;;3.40;;
3341;SDS011;1684;50.748;6.154;2022-12-16T09:11:59;5.53;;;2.80;;
3341;SDS011;1684;50.748;6.154;2022-12-16T09:14:46;6.03;;;3.20;;
3341;SDS011;1684;50.748;6.154;2022-12-16T09:17:32;7.78;;;4.10;;
3341;SDS011;1684;50.748;6.154;2022-12-16T09:20:23;7.43;;;4.35;;
3341;SDS011;1684;50.748;6.154;2022-12-16T09:23:09;11.75;;;4.65;;
3341;SDS011;1684;50.748;6.154;2022-12-16T09:25:55;10.85;;;4.85;;
3341;SDS011;1684;50.748;6.154;2022-12-16T09:28:41;9.80;;;5.00;;
3341;SDS011;1684;50.748;6.154;2022-12-16T09:31:27;13.35;;;6.72;;
3341;SDS011;1684;50.748;6.154;2022-12-16T09:34:13;12.52;;;5.85;;
3341;SDS011;1684;50.748;6.154;2022-12-16T09:37:04;11.05;;;6.35;;
3341;SDS011;1684;50.748;6.154;2022-12-16T09:39:50;11.27;;;6.93;;
3341;SDS011;1684;50.748;6.154;2022-12-16T09:42:38;13.35;;;6.95;;
3341;SDS011;1684;50.748;6.154;2022-12-16T09:45:39;11.70;;;7.55;;
3341;SDS011;1684;50.748;6.154;2022-12-16T09:48:27;19.25;;;7.43;;
3341;SDS011;1684;50.748;6.154;2022-12-16T09:51:14;21.63;;;7.47;;
3341;SDS011;1684;50.748;6.154;2022-12-16T09:54:02;14.77;;;6.93;;
3341;SDS011;1684;50.748;6.154;2022-12-16T09:56:48;19.35;;;9.55;;
3341;SDS011;1684;50.748;6.154;2022-12-16T09:59:36;19.05;;;8.60;;
3341;SDS011;1684;50.748;6.154;2022-12-16T10:02:23;16.60;;;7.68;;
3341;SDS011;1684;50.748;6.154;2022-12-16T10:05:10;20.52;;;9.57;;
3341;SDS011;1684;50.748;6.154;2022-12-16T10:08:00;28.23;;;10.00;;
3341;SDS011;1684;50.748;6.154;2022-12-16T10:10:52;17.98;;;10.73;;
3341;SDS011;1684;50.748;6.154;2022-12-16T10:13:39;25.58;;;9.10;;
3341;SDS011;1684;50.748;6.154;2022-12-16T10:16:28;26.08;;;11.32;;
3341;SDS011;1684;50.748;6.154;2022-12-16T10:19:24;29.77;;;13.20;;
3341;SDS011;1684;50.748;6.154;2022-12-16T10:22:14;29.13;;;14.15;;
3341;SDS011;1684;50.748;6.154;2022-12-16T10:25:05;29.67;;;12.95;;
3341;SDS011;1684;50.748;6.154;2022-12-16T10:27:56;43.47;;;17.52;;
3341;SDS011;1684;50.748;6.154;2022-12-16T10:30:55;38.85;;;16.58;;
3341;SDS011;1684;50.748;6.154;2022-12-16T10:33:46;43.83;;;19.73;;
3341;SDS011;1684;50.748;6.154;2022-12-16T10:36:34;43.42;;;18.00;;
3341;SDS011;1684;50.748;6.154;2022-12-16T10:39:23;38.60;;;19.00;;
3341;SDS011;1684;50.748;6.154;2022-12-16T10:42:13;34.10;;;16.67;;
3341;SDS011;1684;50.748;6.154;2022-12-16T10:45:16;36.10;;;16.63;;
3341;SDS011;1684;50.748;6.154;2022-12-16T10:48:03;36.13;;;19.67;;
3341;SDS011;1684;50.748;6.154;2022-12-16T10:50:49;49.20;;;19.00;;
3341;SDS011;1684;50.748;6.154;2022-12-16T10:53:35;40.50;;;19.33;;
3341;SDS011;1684;50.748;6.154;2022-12-16T10:56:24;49.53;;;20.10;;
3341;SDS011;1684;50.748;6.154;2022-12-16T10:59:19;39.53;;;18.33;;
3341;SDS011;1684;50.748;6.154;2022-12-16T11:02:17;44.80;;;19.15;;
3341;SDS011;1684;50.748;6.154;2022-12-16T11:05:08;33.20;;;15.50;;
3341;SDS011;1684;50.748;6.154;2022-12-16T11:08:17;26.17;;;14.30;;
3341;SDS011;1684;50.748;6.154;2022-12-16T11:11:11;32.83;;;16.00;;
3341;SDS011;1684;50.748;6.154;2022-12-16T11:14:17;24.47;;;13.80;;
3341;SDS011;1684;50.748;6.154;2022-12-16T11:17:13;29.13;;;15.07;;
3341;SDS011;1684;50.748;6.154;2022-12-16T11:20:05;31.30;;;17.00;;
3341;SDS011;1684;50.748;6.154;2022-12-16T11:23:05;32.55;;;16.48;;
3341;SDS011;1684;50.748;6.154;2022-12-16T11:26:05;29.17;;;15.50;;
3341;SDS011;1684;50.748;6.154;2022-12-16T11:29:00;21.90;;;10.60;;
3341;SDS011;1684;50.748;6.154;2022-12-16T11:31:47;27.50;;;7.70;;
3341;SDS011;1684;50.748;6.154;2022-12-16T11:34:37;34.43;;;15.30;;
3341;SDS011;1684;50.748;6.154;2022-12-16T11:37:23;21.90;;;12.47;;
3341;SDS011;1684;50.748;6.154;2022-12-16T11:40:11;15.30;;;6.80;;
3341;SDS011;1684;50.748;6.154;2022-12-16T11:42:59;16.40;;;7.57;;
3341;SDS011;1684;50.748;6.154;2022-12-16T11:45:50;9.33;;;3.03;;
3341;SDS011;1684;50.748;6.154;2022-12-16T11:48:38;15.00;;;9.47;;
3341;SDS011;1684;50.748;6.154;2022-12-16T11:51:28;20.20;;;8.70;;
3341;SDS011;1684;50.748;6.154;2022-12-16T11:54:16;30.60;;;13.57;;
3341;SDS011;1684;50.748;6.154;2022-12-16T11:57:06;25.60;;;10.63;;
3341;SDS011;1684;50.748;6.154;2022-12-16T12:00:02;15.47;;;7.57;;
3341;SDS011;1684;50.748;6.154;2022-12-16T12:02:51;19.40;;;11.03;;
3341;SDS011;1684;50.748;6.154;2022-12-16T12:05:38;21.30;;;10.20;;
3341;SDS011;1684;50.748;6.154;2022-12-16T12:08:29;14.87;;;7.07;;
3341;SDS011;1684;50.748;6.154;2022-12-16T12:11:20;19.23;;;10.50;;
3341;SDS011;1684;50.748;6.154;2022-12-16T12:14:09;23.07;;;12.07;;
3341;SDS011;1684;50.748;6.154;2022-12-16T12:16:59;34.30;;;12.13;;
3341;SDS011;1684;50.748;6.154;2022-12-16T12:19:51;22.37;;;9.90;;
3341;SDS011;1684;50.748;6.154;2022-12-16T12:22:41;22.37;;;11.93;;
3341;SDS011;1684;50.748;6.154;2022-12-16T12:25:37;30.43;;;14.63;;
3341;SDS011;1684;50.748;6.154;2022-12-16T12:28:37;26.93;;;12.77;;
3341;SDS011;1684;50.748;6.154;2022-12-16T12:31:45;39.17;;;18.37;;
3341;SDS011;1684;50.748;6.154;2022-12-16T12:34:34;33.03;;;16.40;;
3341;SDS011;1684;50.748;6.154;2022-12-16T12:37:22;27.60;;;15.50;;
3341;SDS011;1684;50.748;6.154;2022-12-16T12:40:15;42.57;;;18.07;;
3341;SDS011;1684;50.748;6.154;2022-12-16T12:43:06;34.23;;;18.80;;
3341;SDS011;1684;50.748;6.154;2022-12-16T12:45:55;29.43;;;14.90;;
3341;SDS011;1684;50.748;6.154;2022-12-16T12:48:47;32.10;;;17.70;;
3341;SDS011;1684;50.748;6.154;2022-12-16T12:51:36;34.53;;;17.43;;
3341;SDS011;1684;50.748;6.154;2022-12-16T12:54:27;42.80;;;18.33;;
3341;SDS011;1684;50.748;6.154;2022-12-16T12:57:27;39.33;;;17.63;;
3341;SDS011;1684;50.748;6.154;2022-12-16T13:00:15;65.90;;;27.30;;
3341;SDS011;1684;50.748;6.154;2022-12-16T13:03:03;65.40;;;29.53;;
3341;SDS011;1684;50.748;6.154;2022-12-16T13:05:50;33.57;;;17.93;;
3341;SDS011;1684;50.748;6.154;2022-12-16T13:11:38;32.80;;;15.27;;
3341;SDS011;1684;50.748;6.154;2022-12-16T13:18:10;24.57;;;11.90;;
3341;SDS011;1684;50.748;6.154;2022-12-16T13:20:49;42.37;;;15.93;;
3341;SDS011;1684;50.748;6.154;2022-12-16T13:23:36;34.40;;;19.10;;
3341;SDS011;1684;50.748;6.154;2022-12-16T13:26:25;67.03;;;28.50;;
3341;SDS011;1684;50.748;6.154;2022-12-16T13:29:15;69.23;;;29.83;;
3341;SDS011;1684;50.748;6.154;2022-12-16T13:32:03;46.07;;;23.00;;
3341;SDS011;1684;50.748;6.154;2022-12-16T13:35:00;46.50;;;20.37;;
3341;SDS011;1684;50.748;6.154;2022-12-16T13:37:52;50.60;;;22.50;;
3341;SDS011;1684;50.748;6.154;2022-12-16T13:40:49;82.80;;;33.77;;
3341;SDS011;1684;50.748;6.154;2022-12-16T13:43:41;74.60;;;33.40;;
3341;SDS011;1684;50.748;6.154;2022-12-16T13:46:38;88.13;;;40.37;;
3341;SDS011;1684;50.748;6.154;2022-12-16T13:49:42;89.93;;;35.80;;
3341;SDS011;1684;50.748;6.154;2022-12-16T13:52:36;96.47;;;39.77;;
3341;SDS011;1684;50.748;6.154;2022-12-16T13:55:24;111.53;;;40.53;;
3341;SDS011;1684;50.748;6.154;2022-12-16T13:58:16;101.70;;;38.30;;
3341;SDS011;1684;50.748;6.154;2022-12-16T14:01:10;94.27;;;43.20;;
3341;SDS011;1684;50.748;6.154;2022-12-16T14:03:58;87.07;;;39.10;;
3341;SDS011;1684;50.748;6.154;2022-12-16T14:06:44;109.17;;;43.70;;
3341;SDS011;1684;50.748;6.154;2022-12-16T14:09:33;86.50;;;37.60;;
3341;SDS011;1684;50.748;6.154;2022-12-16T14:12:23;117.13;;;43.73;;
3341;SDS011;1684;50.748;6.154;2022-12-16T14:15:20;97.37;;;41.47;;
3341;SDS011;1684;50.748;6.154;2022-12-16T14:18:10;127.20;;;45.37;;
3341;SDS011;1684;50.748;6.154;2022-12-16T14:21:08;112.63;;;46.87;;
3341;SDS011;1684;50.748;6.154;2022-12-16T14:23:58;142.00;;;51.40;;
3341;SDS011;1684;50.748;6.154;2022-12-16T14:26:50;131.57;;;47.70;;
3341;SDS011;1684;50.748;6.154;2022-12-16T14:29:36;139.80;;;49.67;;
3341;SDS011;1684;50.748;6.154;2022-12-16T14:32:25;122.40;;;46.43;;
3341;SDS011;1684;50.748;6.154;2022-12-16T14:35:13;141.67;;;50.90;;
3341;SDS011;1684;50.748;6.154;2022-12-16T14:38:11;141.30;;;48.70;;
3341;SDS011;1684;50.748;6.154;2022-12-16T14:40:57;145.80;;;49.90;;
3341;SDS011;1684;50.748;6.154;2022-12-16T14:43:44;116.63;;;43.47;;
3341;SDS011;1684;50.748;6.154;2022-12-16T14:46:36;112.23;;;41.97;;
3341;SDS011;1684;50.748;6.154;2022-12-16T14:49:22;139.10;;;50.63;;
3341;SDS011;1684;50.748;6.154;2022-12-16T14:52:17;133.17;;;44.00;;
3341;SDS011;1684;50.748;6.154;2022-12-16T14:55:10;134.37;;;45.13;;
3341;SDS011;1684;50.748;6.154;2022-12-16T14:58:03;179.47;;;52.97;;
3341;SDS011;1684;50.748;6.154;2022-12-16T15:00:51;145.37;;;54.60;;
3341;SDS011;1684;50.748;6.154;2022-12-16T15:03:52;153.00;;;48.77;;
3341;SDS011;1684;50.748;6.154;2022-12-16T15:06:39;150.37;;;48.60;;
3341;SDS011;1684;50.748;6.154;2022-12-16T15:09:26;151.53;;;49.90;;
3341;SDS011;1684;50.748;6.154;2022-12-16T15:12:14;141.57;;;47.93;;
3341;SDS011;1684;50.748;6.154;2022-12-16T15:15:03;135.33;;;42.40;;
3341;SDS011;1684;50.748;6.154;2022-12-16T15:17:53;135.53;;;45.10;;
3341;SDS011;1684;50.748;6.154;2022-12-16T15:20:42;144.57;;;46.23;;
3341;SDS011;1684;50.748;6.154;2022-12-16T15:23:30;143.23;;;50.50;;
3341;SDS011;1684;50.748;6.154;2022-12-16T15:26:16;135.23;;;45.50;;
3341;SDS011;1684;50.748;6.154;2022-12-16T15:29:02;136.50;;;42.90;;
3341;SDS011;1684;50.748;6.154;2022-12-16T15:31:48;111.37;;;38.27;;
3341;SDS011;1684;50.748;6.154;2022-12-16T15:34:38;102.97;;;36.27;;
3341;SDS011;1684;50.748;6.154;2022-12-16T15:37:34;96.90;;;37.17;;
3341;SDS011;1684;50.748;6.154;2022-12-16T15:40:29;110.97;;;42.67;;
3341;SDS011;1684;50.748;6.154;2022-12-16T15:46:18;99.60;;;38.33;;
3341;SDS011;1684;50.748;6.154;2022-12-16T15:49:05;112.83;;;41.43;;
3341;SDS011;1684;50.748;6.154;2022-12-16T15:51:52;125.87;;;46.13;;
3341;SDS011;1684;50.748;6.154;2022-12-16T15:54:49;133.67;;;45.93;;
3341;SDS011;1684;50.748;6.154;2022-12-16T15:57:36;101.97;;;36.93;;
3341;SDS011;1684;50.748;6.154;2022-12-16T16:00:23;115.07;;;39.80;;
3341;SDS011;1684;50.748;6.154;2022-12-16T16:03:16;110.70;;;38.77;;
3341;SDS011;1684;50.748;6.154;2022-12-16T16:06:03;93.50;;;39.33;;
3341;SDS011;1684;50.748;6.154;2022-12-16T16:08:51;96.33;;;38.80;;
3341;SDS011;1684;50.748;6.154;2022-12-16T16:11:38;105.57;;;37.80;;
3341;SDS011;1684;50.748;6.154;2022-12-16T16:14:24;119.93;;;40.23;;
3341;SDS011;1684;50.748;6.154;2022-12-16T16:17:12;102.27;;;36.40;;
3341;SDS011;1684;50.748;6.154;2022-12-16T16:20:04;84.47;;;28.60;;
3341;SDS011;1684;50.748;6.154;2022-12-16T16:22:50;69.70;;;26.57;;
3341;SDS011;1684;50.748;6.154;2022-12-16T16:25:47;86.60;;;31.60;;
3341;SDS011;1684;50.748;6.154;2022-12-16T16:28:34;54.20;;;24.17;;
3341;SDS011;1684;50.748;6.154;2022-12-16T16:31:20;57.50;;;23.00;;
3341;SDS011;1684;50.748;6.154;2022-12-16T16:34:06;40.80;;;15.20;;
3341;SDS011;1684;50.748;6.154;2022-12-16T16:36:53;43.40;;;12.97;;
3341;SDS011;1684;50.748;6.154;2022-12-16T16:39:39;59.53;;;19.00;;
3341;SDS011;1684;50.748;6.154;2022-12-16T16:42:43;50.40;;;20.77;;
3341;SDS011;1684;50.748;6.154;2022-12-16T16:45:37;62.33;;;26.33;;
3341;SDS011;1684;50.748;6.154;2022-12-16T16:48:23;59.83;;;22.90;;
3341;SDS011;1684;50.748;6.154;2022-12-16T16:51:11;56.90;;;22.80;;
3341;SDS011;1684;50.748;6.154;2022-12-16T16:53:57;54.43;;;25.20;;
3341;SDS011;1684;50.748;6.154;2022-12-16T16:56:43;68.87;;;25.40;;
3341;SDS011;1684;50.748;6.154;2022-12-16T16:59:30;26.43;;;10.23;;
3341;SDS011;1684;50.748;6.154;2022-12-16T17:02:17;35.93;;;14.67;;
3341;SDS011;1684;50.748;6.154;2022-12-16T17:05:07;42.57;;;17.23;;
3341;SDS011;1684;50.748;6.154;2022-12-16T17:08:01;47.17;;;16.97;;